sensor_id;sensor_type;location;lat;lon;timestamp;P1;durP1;ratioP1;P2;durP2;ratioP2
18647;SDS011;9453;50.294;18.644;2024-01-11T05:04:58;134.83;;;40.33;;
18647;SDS011;9453;50.294;18.644;2024-01-11T05:07:26;131.27;;;39.57;;
18647;SDS011;9453;50.294;18.644;2024-01-11T05:09:53;134.50;;;36.07;;
18647;SDS011;9453;50.294;18.644;2024-01-11T05:12:20;109.47;;;33.37;;
18647;SDS011;9453;50.294;18.644;2024-01-11T05:14:47;129.03;;;37.37;;
18647;SDS011;9453;50.294;18.644;2024-01-11T05:17:14;125.17;;;37.70;;
18647;SDS011;9453;50.294;18.644;2024-01-11T05:19:41;123.03;;;34.53;;
18647;SDS011;9453;50.294;18.644;2024-01-11T05:22:09;121.97;;;35.50;;
18647;SDS011;9453;50.294;18.644;2024-01-11T05:24:36;134.53;;;38.63;;
18647;SDS011;9453;50.294;18.644;2024-01-11T05:27:03;121.23;;;36.43;;
18647;SDS011;9453;50.294;18.644;2024-01-11T05:29:30;102.43;;;31.90;;
18647;SDS011;9453;50.294;18.644;2024-01-11T05:31:57;81.47;;;24.57;;
18647;SDS011;9453;50.294;18.644;2024-01-11T05:34:24;71.43;;;23.30;;
18647;SDS011;9453;50.294;18.644;2024-01-11T05:36:51;75.13;;;23.83;;
18647;SDS011;9453;50.294;18.644;2024-01-11T05:39:20;76.67;;;23.70;;
18647;SDS011;9453;50.294;18.644;2024-01-11T05:41:46;80.20;;;23.97;;
18647;SDS011;9453;50.294;18.644;2024-01-11T05:44:13;84.57;;;25.30;;
18647;SDS011;9453;50.294;18.644;2024-01-11T05:46:40;83.33;;;24.10;;
18647;SDS011;9453;50.294;18.644;2024-01-11T05:49:07;76.90;;;25.80;;
18647;SDS011;9453;50.294;18.644;2024-01-11T05:51:34;91.97;;;30.17;;
18647;SDS011;9453;50.294;18.644;2024-01-11T05:54:01;138.30;;;37.97;;
18647;SDS011;9453;50.294;18.644;2024-01-11T05:56:30;124.67;;;37.50;;
18647;SDS011;9453;50.294;18.644;2024-01-11T05:58:57;113.40;;;35.97;;
18647;SDS011;9453;50.294;18.644;2024-01-11T06:01:24;128.73;;;38.47;;
18647;SDS011;9453;50.294;18.644;2024-01-11T06:03:51;127.47;;;36.77;;
18647;SDS011;9453;50.294;18.644;2024-01-11T06:06:18;107.73;;;30.93;;
18647;SDS011;9453;50.294;18.644;2024-01-11T06:08:45;104.00;;;30.70;;
18647;SDS011;9453;50.294;18.644;2024-01-11T06:11:13;99.63;;;30.43;;
18647;SDS011;9453;50.294;18.644;2024-01-11T06:13:42;82.07;;;27.57;;
18647;SDS011;9453;50.294;18.644;2024-01-11T06:16:09;84.37;;;26.47;;
18647;SDS011;9453;50.294;18.644;2024-01-11T06:18:36;112.00;;;28.93;;
18647;SDS011;9453;50.294;18.644;2024-01-11T06:21:03;99.33;;;28.27;;
18647;SDS011;9453;50.294;18.644;2024-01-11T06:23:30;129.37;;;35.83;;
18647;SDS011;9453;50.294;18.644;2024-01-11T06:25:57;113.23;;;31.73;;
18647;SDS011;9453;50.294;18.644;2024-01-11T06:28:24;101.30;;;29.57;;
18647;SDS011;9453;50.294;18.644;2024-01-11T06:30:53;113.23;;;30.77;;
18647;SDS011;9453;50.294;18.644;2024-01-11T06:33:20;110.93;;;31.73;;
18647;SDS011;9453;50.294;18.644;2024-01-11T06:35:47;106.70;;;30.53;;
18647;SDS011;9453;50.294;18.644;2024-01-11T06:38:14;98.10;;;30.20;;
18647;SDS011;9453;50.294;18.644;2024-01-11T06:40:41;128.93;;;34.57;;
18647;SDS011;9453;50.294;18.644;2024-01-11T06:43:08;122.93;;;36.63;;
18647;SDS011;9453;50.294;18.644;2024-01-11T06:45:36;121.13;;;35.70;;
18647;SDS011;9453;50.294;18.644;2024-01-11T06:48:05;108.57;;;35.67;;
18647;SDS011;9453;50.294;18.644;2024-01-11T06:50:32;117.10;;;36.87;;
18647;SDS011;9453;50.294;18.644;2024-01-11T06:52:59;106.70;;;36.70;;
18647;SDS011;9453;50.294;18.644;2024-01-11T06:55:27;119.60;;;34.33;;
18647;SDS011;9453;50.294;18.644;2024-01-11T06:57:55;114.30;;;35.83;;
18647;SDS011;9453;50.294;18.644;2024-01-11T07:00:22;108.10;;;35.70;;
18647;SDS011;9453;50.294;18.644;2024-01-11T07:02:49;135.20;;;37.90;;
18647;SDS011;9453;50.294;18.644;2024-01-11T07:05:20;112.40;;;35.67;;
18647;SDS011;9453;50.294;18.644;2024-01-11T07:07:47;110.60;;;33.87;;
18647;SDS011;9453;50.294;18.644;2024-01-11T07:10:14;103.73;;;31.57;;
18647;SDS011;9453;50.294;18.644;2024-01-11T07:12:41;99.97;;;33.43;;
18647;SDS011;9453;50.294;18.644;2024-01-11T07:15:08;114.83;;;32.57;;
18647;SDS011;9453;50.294;18.644;2024-01-11T07:17:36;91.20;;;29.67;;
18647;SDS011;9453;50.294;18.644;2024-01-11T07:20:03;108.90;;;33.93;;
18647;SDS011;9453;50.294;18.644;2024-01-11T07:22:33;115.20;;;33.57;;
18647;SDS011;9453;50.294;18.644;2024-01-11T07:25:00;122.23;;;35.67;;
18647;SDS011;9453;50.294;18.644;2024-01-11T07:27:29;113.80;;;35.43;;
18647;SDS011;9453;50.294;18.644;2024-01-11T07:29:56;106.33;;;33.77;;
18647;SDS011;9453;50.294;18.644;2024-01-11T07:32:23;108.43;;;33.37;;
18647;SDS011;9453;50.294;18.644;2024-01-11T07:34:50;92.80;;;30.17;;
18647;SDS011;9453;50.294;18.644;2024-01-11T07:37:17;98.23;;;33.30;;
18647;SDS011;9453;50.294;18.644;2024-01-11T07:39:46;101.17;;;31.33;;
18647;SDS011;9453;50.294;18.644;2024-01-11T07:42:14;96.10;;;28.90;;
18647;SDS011;9453;50.294;18.644;2024-01-11T07:44:42;81.97;;;26.53;;
18647;SDS011;9453;50.294;18.644;2024-01-11T07:47:09;77.50;;;25.07;;
18647;SDS011;9453;50.294;18.644;2024-01-11T07:49:36;66.93;;;21.33;;
18647;SDS011;9453;50.294;18.644;2024-01-11T07:52:04;68.37;;;20.07;;
18647;SDS011;9453;50.294;18.644;2024-01-11T07:54:31;54.47;;;18.50;;
18647;SDS011;9453;50.294;18.644;2024-01-11T07:57:00;53.37;;;17.87;;
18647;SDS011;9453;50.294;18.644;2024-01-11T07:59:28;53.57;;;17.97;;
18647;SDS011;9453;50.294;18.644;2024-01-11T08:02:00;46.93;;;15.87;;
18647;SDS011;9453;50.294;18.644;2024-01-11T08:04:29;54.57;;;16.97;;
18647;SDS011;9453;50.294;18.644;2024-01-11T08:06:56;49.60;;;17.00;;
18647;SDS011;9453;50.294;18.644;2024-01-11T08:09:24;56.70;;;17.13;;
18647;SDS011;9453;50.294;18.644;2024-01-11T08:11:51;42.80;;;15.10;;
18647;SDS011;9453;50.294;18.644;2024-01-11T08:14:20;48.20;;;15.77;;
18647;SDS011;9453;50.294;18.644;2024-01-11T08:16:47;46.27;;;15.13;;
18647;SDS011;9453;50.294;18.644;2024-01-11T08:19:14;49.67;;;15.87;;
18647;SDS011;9453;50.294;18.644;2024-01-11T08:21:42;52.83;;;17.03;;
18647;SDS011;9453;50.294;18.644;2024-01-11T08:24:09;47.33;;;17.47;;
18647;SDS011;9453;50.294;18.644;2024-01-11T08:26:36;49.40;;;17.73;;
18647;SDS011;9453;50.294;18.644;2024-01-11T08:29:03;49.33;;;16.53;;
18647;SDS011;9453;50.294;18.644;2024-01-11T08:31:32;51.50;;;15.93;;
18647;SDS011;9453;50.294;18.644;2024-01-11T08:34:00;50.33;;;17.07;;
18647;SDS011;9453;50.294;18.644;2024-01-11T08:36:30;46.60;;;16.17;;
18647;SDS011;9453;50.294;18.644;2024-01-11T08:38:58;52.00;;;16.87;;
18647;SDS011;9453;50.294;18.644;2024-01-11T08:41:25;54.33;;;16.53;;
18647;SDS011;9453;50.294;18.644;2024-01-11T08:43:52;47.10;;;15.13;;
18647;SDS011;9453;50.294;18.644;2024-01-11T08:46:23;45.23;;;14.93;;
18647;SDS011;9453;50.294;18.644;2024-01-11T08:48:52;45.93;;;16.17;;
18647;SDS011;9453;50.294;18.644;2024-01-11T08:51:21;47.63;;;15.93;;
18647;SDS011;9453;50.294;18.644;2024-01-11T08:53:48;48.80;;;17.10;;
18647;SDS011;9453;50.294;18.644;2024-01-11T08:56:15;52.50;;;15.97;;
18647;SDS011;9453;50.294;18.644;2024-01-11T08:58:42;55.77;;;18.83;;
18647;SDS011;9453;50.294;18.644;2024-01-11T09:01:10;58.67;;;18.83;;
18647;SDS011;9453;50.294;18.644;2024-01-11T09:03:37;52.53;;;19.17;;
18647;SDS011;9453;50.294;18.644;2024-01-11T09:06:05;60.77;;;19.63;;
18647;SDS011;9453;50.294;18.644;2024-01-11T09:08:32;50.43;;;19.23;;
18647;SDS011;9453;50.294;18.644;2024-01-11T09:10:59;60.17;;;20.00;;
18647;SDS011;9453;50.294;18.644;2024-01-11T09:13:27;56.83;;;18.13;;
18647;SDS011;9453;50.294;18.644;2024-01-11T09:15:55;54.63;;;17.43;;
18647;SDS011;9453;50.294;18.644;2024-01-11T09:18:22;50.90;;;17.70;;
18647;SDS011;9453;50.294;18.644;2024-01-11T09:20:50;53.00;;;18.80;;
18647;SDS011;9453;50.294;18.644;2024-01-11T09:23:18;45.00;;;17.10;;
18647;SDS011;9453;50.294;18.644;2024-01-11T09:25:45;58.83;;;19.67;;
18647;SDS011;9453;50.294;18.644;2024-01-11T09:28:12;48.80;;;18.40;;
18647;SDS011;9453;50.294;18.644;2024-01-11T09:30:39;63.50;;;19.23;;
18647;SDS011;9453;50.294;18.644;2024-01-11T09:33:06;68.33;;;20.37;;
18647;SDS011;9453;50.294;18.644;2024-01-11T09:35:33;57.33;;;20.33;;
18647;SDS011;9453;50.294;18.644;2024-01-11T09:38:00;74.47;;;22.37;;
18647;SDS011;9453;50.294;18.644;2024-01-11T09:40:28;59.83;;;19.23;;
18647;SDS011;9453;50.294;18.644;2024-01-11T09:42:55;59.03;;;18.53;;
18647;SDS011;9453;50.294;18.644;2024-01-11T09:45:22;59.80;;;18.87;;
18647;SDS011;9453;50.294;18.644;2024-01-11T09:47:50;60.30;;;20.00;;
18647;SDS011;9453;50.294;18.644;2024-01-11T09:50:19;58.00;;;19.07;;
18647;SDS011;9453;50.294;18.644;2024-01-11T09:52:47;50.67;;;17.47;;
18647;SDS011;9453;50.294;18.644;2024-01-11T09:55:15;50.70;;;17.40;;
18647;SDS011;9453;50.294;18.644;2024-01-11T09:57:45;45.90;;;16.90;;
18647;SDS011;9453;50.294;18.644;2024-01-11T10:00:13;40.67;;;14.37;;
18647;SDS011;9453;50.294;18.644;2024-01-11T10:02:43;41.93;;;14.87;;
18647;SDS011;9453;50.294;18.644;2024-01-11T10:05:11;41.57;;;14.53;;
18647;SDS011;9453;50.294;18.644;2024-01-11T10:07:40;51.63;;;17.13;;
18647;SDS011;9453;50.294;18.644;2024-01-11T10:10:07;48.77;;;16.10;;
18647;SDS011;9453;50.294;18.644;2024-01-11T10:12:34;49.10;;;17.80;;
18647;SDS011;9453;50.294;18.644;2024-01-11T10:15:06;46.47;;;15.73;;
18647;SDS011;9453;50.294;18.644;2024-01-11T10:17:35;50.90;;;16.60;;
18647;SDS011;9453;50.294;18.644;2024-01-11T10:20:02;54.13;;;18.33;;
18647;SDS011;9453;50.294;18.644;2024-01-11T10:22:30;53.27;;;17.20;;
18647;SDS011;9453;50.294;18.644;2024-01-11T10:25:08;51.50;;;16.80;;
18647;SDS011;9453;50.294;18.644;2024-01-11T10:27:37;58.63;;;18.80;;
18647;SDS011;9453;50.294;18.644;2024-01-11T10:30:06;53.40;;;17.67;;
18647;SDS011;9453;50.294;18.644;2024-01-11T10:32:34;56.50;;;19.60;;
18647;SDS011;9453;50.294;18.644;2024-01-11T10:35:01;54.90;;;19.77;;
18647;SDS011;9453;50.294;18.644;2024-01-11T10:37:30;52.90;;;18.87;;
18647;SDS011;9453;50.294;18.644;2024-01-11T10:39:59;54.30;;;19.97;;
18647;SDS011;9453;50.294;18.644;2024-01-11T10:42:34;60.43;;;17.87;;
18647;SDS011;9453;50.294;18.644;2024-01-11T10:45:06;53.20;;;18.97;;
18647;SDS011;9453;50.294;18.644;2024-01-11T10:47:41;57.53;;;18.57;;
18647;SDS011;9453;50.294;18.644;2024-01-11T10:50:14;61.87;;;19.27;;
18647;SDS011;9453;50.294;18.644;2024-01-11T10:52:45;47.10;;;18.10;;
18647;SDS011;9453;50.294;18.644;2024-01-11T10:55:20;58.00;;;21.13;;
18647;SDS011;9453;50.294;18.644;2024-01-11T10:57:48;54.20;;;19.37;;
18647;SDS011;9453;50.294;18.644;2024-01-11T11:00:18;69.60;;;22.57;;
18647;SDS011;9453;50.294;18.644;2024-01-11T11:02:47;71.17;;;26.57;;
18647;SDS011;9453;50.294;18.644;2024-01-11T11:05:15;71.67;;;24.90;;
18647;SDS011;9453;50.294;18.644;2024-01-11T11:07:46;79.37;;;25.90;;
18647;SDS011;9453;50.294;18.644;2024-01-11T11:10:14;67.30;;;23.10;;
18647;SDS011;9453;50.294;18.644;2024-01-11T11:12:43;54.60;;;18.30;;
18647;SDS011;9453;50.294;18.644;2024-01-11T11:15:12;46.97;;;16.33;;
18647;SDS011;9453;50.294;18.644;2024-01-11T11:17:41;45.97;;;15.40;;
18647;SDS011;9453;50.294;18.644;2024-01-11T11:20:10;39.53;;;14.00;;
18647;SDS011;9453;50.294;18.644;2024-01-11T11:22:39;34.43;;;12.03;;
18647;SDS011;9453;50.294;18.644;2024-01-11T11:25:08;40.40;;;12.47;;
18647;SDS011;9453;50.294;18.644;2024-01-11T11:27:49;36.77;;;12.60;;
18647;SDS011;9453;50.294;18.644;2024-01-11T11:30:18;33.83;;;11.80;;
18647;SDS011;9453;50.294;18.644;2024-01-11T11:32:47;37.93;;;12.37;;
18647;SDS011;9453;50.294;18.644;2024-01-11T11:35:14;45.60;;;13.00;;
18647;SDS011;9453;50.294;18.644;2024-01-11T11:37:42;40.90;;;12.37;;
18647;SDS011;9453;50.294;18.644;2024-01-11T11:40:09;38.83;;;12.13;;
18647;SDS011;9453;50.294;18.644;2024-01-11T11:42:37;32.93;;;12.20;;
18647;SDS011;9453;50.294;18.644;2024-01-11T11:45:06;45.73;;;12.67;;
18647;SDS011;9453;50.294;18.644;2024-01-11T11:47:36;36.97;;;12.10;;
18647;SDS011;9453;50.294;18.644;2024-01-11T11:50:07;39.50;;;11.17;;
18647;SDS011;9453;50.294;18.644;2024-01-11T11:52:36;36.30;;;11.27;;
18647;SDS011;9453;50.294;18.644;2024-01-11T11:55:05;38.73;;;12.43;;
18647;SDS011;9453;50.294;18.644;2024-01-11T11:57:34;32.97;;;11.47;;
18647;SDS011;9453;50.294;18.644;2024-01-11T12:00:03;36.83;;;12.30;;
18647;SDS011;9453;50.294;18.644;2024-01-11T12:02:32;40.93;;;13.50;;
18647;SDS011;9453;50.294;18.644;2024-01-11T12:05:01;40.07;;;14.00;;
18647;SDS011;9453;50.294;18.644;2024-01-11T12:07:30;35.53;;;12.67;;
18647;SDS011;9453;50.294;18.644;2024-01-11T12:09:58;45.40;;;13.43;;
18647;SDS011;9453;50.294;18.644;2024-01-11T12:12:26;44.90;;;14.73;;
18647;SDS011;9453;50.294;18.644;2024-01-11T12:14:54;42.20;;;14.63;;
18647;SDS011;9453;50.294;18.644;2024-01-11T12:17:21;42.53;;;15.23;;
18647;SDS011;9453;50.294;18.644;2024-01-11T12:19:48;47.50;;;15.23;;
18647;SDS011;9453;50.294;18.644;2024-01-11T12:22:18;38.23;;;13.93;;
18647;SDS011;9453;50.294;18.644;2024-01-11T12:24:47;43.00;;;15.03;;
18647;SDS011;9453;50.294;18.644;2024-01-11T12:27:14;54.50;;;16.47;;
18647;SDS011;9453;50.294;18.644;2024-01-11T12:29:42;48.90;;;14.97;;
18647;SDS011;9453;50.294;18.644;2024-01-11T12:32:09;53.23;;;17.77;;
18647;SDS011;9453;50.294;18.644;2024-01-11T12:34:37;49.73;;;16.77;;
18647;SDS011;9453;50.294;18.644;2024-01-11T12:37:05;49.50;;;17.60;;
18647;SDS011;9453;50.294;18.644;2024-01-11T12:39:34;47.03;;;17.57;;
18647;SDS011;9453;50.294;18.644;2024-01-11T12:42:06;50.50;;;17.60;;
18647;SDS011;9453;50.294;18.644;2024-01-11T12:44:34;55.73;;;17.73;;
18647;SDS011;9453;50.294;18.644;2024-01-11T12:47:03;54.70;;;16.93;;
18647;SDS011;9453;50.294;18.644;2024-01-11T12:49:32;61.30;;;21.30;;
18647;SDS011;9453;50.294;18.644;2024-01-11T12:51:59;57.63;;;17.97;;
18647;SDS011;9453;50.294;18.644;2024-01-11T12:54:26;54.97;;;18.23;;
18647;SDS011;9453;50.294;18.644;2024-01-11T12:56:53;60.53;;;17.77;;
18647;SDS011;9453;50.294;18.644;2024-01-11T12:59:26;53.20;;;17.77;;
18647;SDS011;9453;50.294;18.644;2024-01-11T13:01:53;49.30;;;16.03;;
18647;SDS011;9453;50.294;18.644;2024-01-11T13:04:22;57.90;;;18.33;;
18647;SDS011;9453;50.294;18.644;2024-01-11T13:06:50;52.13;;;16.70;;
18647;SDS011;9453;50.294;18.644;2024-01-11T13:09:18;51.70;;;18.20;;
18647;SDS011;9453;50.294;18.644;2024-01-11T13:11:46;50.87;;;17.40;;
18647;SDS011;9453;50.294;18.644;2024-01-11T13:14:14;53.43;;;16.60;;
18647;SDS011;9453;50.294;18.644;2024-01-11T13:16:57;63.23;;;17.40;;
18647;SDS011;9453;50.294;18.644;2024-01-11T13:19:24;54.03;;;17.07;;
18647;SDS011;9453;50.294;18.644;2024-01-11T13:21:51;46.77;;;16.50;;
18647;SDS011;9453;50.294;18.644;2024-01-11T13:24:18;45.30;;;16.13;;
18647;SDS011;9453;50.294;18.644;2024-01-11T13:26:45;54.33;;;17.80;;
18647;SDS011;9453;50.294;18.644;2024-01-11T13:29:13;44.33;;;15.80;;
18647;SDS011;9453;50.294;18.644;2024-01-11T13:31:40;55.00;;;17.50;;
18647;SDS011;9453;50.294;18.644;2024-01-11T13:34:09;49.33;;;16.63;;
18647;SDS011;9453;50.294;18.644;2024-01-11T13:36:36;49.20;;;16.87;;
18647;SDS011;9453;50.294;18.644;2024-01-11T13:39:04;55.00;;;18.07;;
18647;SDS011;9453;50.294;18.644;2024-01-11T13:41:33;51.60;;;17.37;;
18647;SDS011;9453;50.294;18.644;2024-01-11T13:44:00;53.77;;;17.20;;
18647;SDS011;9453;50.294;18.644;2024-01-11T13:46:30;49.30;;;17.70;;
18647;SDS011;9453;50.294;18.644;2024-01-11T13:48:59;49.83;;;17.17;;
18647;SDS011;9453;50.294;18.644;2024-01-11T13:51:29;49.07;;;17.20;;
18647;SDS011;9453;50.294;18.644;2024-01-11T13:53:57;52.23;;;16.60;;
18647;SDS011;9453;50.294;18.644;2024-01-11T13:56:25;54.13;;;17.47;;
18647;SDS011;9453;50.294;18.644;2024-01-11T13:58:53;41.43;;;14.93;;
18647;SDS011;9453;50.294;18.644;2024-01-11T14:01:21;48.70;;;15.50;;
18647;SDS011;9453;50.294;18.644;2024-01-11T14:03:48;43.60;;;15.80;;
18647;SDS011;9453;50.294;18.644;2024-01-11T14:06:15;42.53;;;13.77;;
18647;SDS011;9453;50.294;18.644;2024-01-11T14:08:44;43.87;;;14.60;;
18647;SDS011;9453;50.294;18.644;2024-01-11T14:11:11;40.80;;;13.50;;
18647;SDS011;9453;50.294;18.644;2024-01-11T14:13:38;35.43;;;12.80;;
18647;SDS011;9453;50.294;18.644;2024-01-11T14:16:06;39.17;;;13.10;;
18647;SDS011;9453;50.294;18.644;2024-01-11T14:18:33;43.00;;;13.33;;
18647;SDS011;9453;50.294;18.644;2024-01-11T14:21:00;30.77;;;12.57;;
18647;SDS011;9453;50.294;18.644;2024-01-11T14:23:27;36.60;;;12.17;;
18647;SDS011;9453;50.294;18.644;2024-01-11T14:25:57;40.73;;;13.77;;
18647;SDS011;9453;50.294;18.644;2024-01-11T14:28:24;34.93;;;11.80;;
18647;SDS011;9453;50.294;18.644;2024-01-11T14:30:52;39.43;;;13.20;;
18647;SDS011;9453;50.294;18.644;2024-01-11T14:33:19;32.33;;;11.90;;
18647;SDS011;9453;50.294;18.644;2024-01-11T14:35:47;31.90;;;11.53;;
18647;SDS011;9453;50.294;18.644;2024-01-11T14:38:14;37.47;;;11.57;;
18647;SDS011;9453;50.294;18.644;2024-01-11T14:40:41;41.23;;;13.17;;
18647;SDS011;9453;50.294;18.644;2024-01-11T14:43:10;38.87;;;12.87;;
18647;SDS011;9453;50.294;18.644;2024-01-11T14:45:37;41.53;;;12.53;;
18647;SDS011;9453;50.294;18.644;2024-01-11T14:48:05;39.67;;;12.63;;
18647;SDS011;9453;50.294;18.644;2024-01-11T14:50:33;26.30;;;10.57;;
18647;SDS011;9453;50.294;18.644;2024-01-11T14:53:00;30.53;;;10.80;;
18647;SDS011;9453;50.294;18.644;2024-01-11T14:55:28;34.13;;;11.60;;
18647;SDS011;9453;50.294;18.644;2024-01-11T14:57:55;32.20;;;12.07;;
18647;SDS011;9453;50.294;18.644;2024-01-11T15:00:24;35.03;;;12.33;;
18647;SDS011;9453;50.294;18.644;2024-01-11T15:02:51;39.53;;;13.27;;
18647;SDS011;9453;50.294;18.644;2024-01-11T15:05:19;29.00;;;11.37;;
18647;SDS011;9453;50.294;18.644;2024-01-11T15:07:46;32.70;;;12.83;;
18647;SDS011;9453;50.294;18.644;2024-01-11T15:10:13;37.40;;;12.87;;
18647;SDS011;9453;50.294;18.644;2024-01-11T15:12:40;37.17;;;13.70;;
18647;SDS011;9453;50.294;18.644;2024-01-11T15:15:08;46.67;;;15.50;;
18647;SDS011;9453;50.294;18.644;2024-01-11T15:17:37;36.77;;;13.97;;
18647;SDS011;9453;50.294;18.644;2024-01-11T15:20:05;45.57;;;15.43;;
18647;SDS011;9453;50.294;18.644;2024-01-11T15:22:34;44.83;;;15.37;;
18647;SDS011;9453;50.294;18.644;2024-01-11T15:25:01;44.93;;;14.63;;
18647;SDS011;9453;50.294;18.644;2024-01-11T15:27:29;38.03;;;14.13;;
18647;SDS011;9453;50.294;18.644;2024-01-11T15:29:57;39.70;;;14.20;;
18647;SDS011;9453;50.294;18.644;2024-01-11T15:32:25;43.77;;;14.43;;
18647;SDS011;9453;50.294;18.644;2024-01-11T15:34:54;37.53;;;13.77;;
18647;SDS011;9453;50.294;18.644;2024-01-11T15:37:21;43.27;;;15.43;;
18647;SDS011;9453;50.294;18.644;2024-01-11T15:39:51;43.13;;;16.50;;
18647;SDS011;9453;50.294;18.644;2024-01-11T15:42:19;47.03;;;16.40;;
18647;SDS011;9453;50.294;18.644;2024-01-11T15:44:49;54.63;;;18.33;;
18647;SDS011;9453;50.294;18.644;2024-01-11T15:47:16;52.33;;;18.73;;
18647;SDS011;9453;50.294;18.644;2024-01-11T15:49:44;49.57;;;17.70;;
18647;SDS011;9453;50.294;18.644;2024-01-11T15:52:13;47.30;;;16.00;;
18647;SDS011;9453;50.294;18.644;2024-01-11T15:54:40;38.87;;;15.30;;
18647;SDS011;9453;50.294;18.644;2024-01-11T15:57:07;50.93;;;16.83;;
18647;SDS011;9453;50.294;18.644;2024-01-11T15:59:35;43.33;;;15.63;;
18647;SDS011;9453;50.294;18.644;2024-01-11T16:02:03;48.63;;;16.30;;
18647;SDS011;9453;50.294;18.644;2024-01-11T16:04:32;45.67;;;16.10;;
18647;SDS011;9453;50.294;18.644;2024-01-11T16:06:59;51.90;;;17.93;;
18647;SDS011;9453;50.294;18.644;2024-01-11T16:09:29;49.30;;;17.10;;
18647;SDS011;9453;50.294;18.644;2024-01-11T16:11:56;56.70;;;18.40;;
18647;SDS011;9453;50.294;18.644;2024-01-11T16:14:24;50.97;;;18.13;;
18647;SDS011;9453;50.294;18.644;2024-01-11T16:16:52;53.73;;;17.47;;
18647;SDS011;9453;50.294;18.644;2024-01-11T16:19:19;46.70;;;16.50;;
18647;SDS011;9453;50.294;18.644;2024-01-11T16:21:47;44.23;;;17.37;;
18647;SDS011;9453;50.294;18.644;2024-01-11T16:24:14;45.90;;;17.97;;
18647;SDS011;9453;50.294;18.644;2024-01-11T16:26:43;41.77;;;15.40;;
18647;SDS011;9453;50.294;18.644;2024-01-11T16:29:10;45.10;;;17.43;;
18647;SDS011;9453;50.294;18.644;2024-01-11T16:31:38;48.60;;;18.37;;
18647;SDS011;9453;50.294;18.644;2024-01-11T16:34:05;46.73;;;15.77;;
18647;SDS011;9453;50.294;18.644;2024-01-11T16:36:35;61.00;;;19.17;;
18647;SDS011;9453;50.294;18.644;2024-01-11T16:39:03;47.33;;;16.63;;
18647;SDS011;9453;50.294;18.644;2024-01-11T16:41:34;48.33;;;16.90;;
18647;SDS011;9453;50.294;18.644;2024-01-11T16:44:02;56.20;;;18.43;;
18647;SDS011;9453;50.294;18.644;2024-01-11T16:46:30;53.43;;;18.87;;
18647;SDS011;9453;50.294;18.644;2024-01-11T16:48:58;58.73;;;18.27;;
18647;SDS011;9453;50.294;18.644;2024-01-11T16:51:28;53.97;;;17.77;;
18647;SDS011;9453;50.294;18.644;2024-01-11T16:53:55;49.23;;;17.57;;
18647;SDS011;9453;50.294;18.644;2024-01-11T16:56:23;47.97;;;17.87;;
18647;SDS011;9453;50.294;18.644;2024-01-11T16:58:51;50.40;;;17.57;;
18647;SDS011;9453;50.294;18.644;2024-01-11T17:01:21;46.73;;;17.63;;
18647;SDS011;9453;50.294;18.644;2024-01-11T17:03:50;46.53;;;15.93;;
18647;SDS011;9453;50.294;18.644;2024-01-11T17:06:17;53.80;;;17.77;;
18647;SDS011;9453;50.294;18.644;2024-01-11T17:08:46;49.53;;;16.20;;
18647;SDS011;9453;50.294;18.644;2024-01-11T17:11:15;40.77;;;15.83;;
18647;SDS011;9453;50.294;18.644;2024-01-11T17:13:42;50.97;;;17.90;;
18647;SDS011;9453;50.294;18.644;2024-01-11T17:16:15;40.10;;;16.33;;
18647;SDS011;9453;50.294;18.644;2024-01-11T17:18:43;46.03;;;16.33;;
18647;SDS011;9453;50.294;18.644;2024-01-11T17:21:11;45.70;;;16.80;;
18647;SDS011;9453;50.294;18.644;2024-01-11T17:23:38;48.93;;;17.00;;
18647;SDS011;9453;50.294;18.644;2024-01-11T17:26:05;49.30;;;16.23;;
18647;SDS011;9453;50.294;18.644;2024-01-11T17:28:32;42.90;;;16.10;;
18647;SDS011;9453;50.294;18.644;2024-01-11T17:30:59;54.73;;;17.60;;
18647;SDS011;9453;50.294;18.644;2024-01-11T17:33:26;54.07;;;17.33;;
18647;SDS011;9453;50.294;18.644;2024-01-11T17:35:55;47.67;;;17.33;;
18647;SDS011;9453;50.294;18.644;2024-01-11T17:38:22;47.73;;;18.47;;
18647;SDS011;9453;50.294;18.644;2024-01-11T17:40:49;46.23;;;17.40;;
18647;SDS011;9453;50.294;18.644;2024-01-11T17:43:16;49.53;;;17.53;;
18647;SDS011;9453;50.294;18.644;2024-01-11T17:45:44;50.70;;;19.03;;
18647;SDS011;9453;50.294;18.644;2024-01-11T17:48:13;58.70;;;17.93;;
18647;SDS011;9453;50.294;18.644;2024-01-11T17:50:41;52.80;;;19.77;;
18647;SDS011;9453;50.294;18.644;2024-01-11T17:53:10;48.27;;;17.10;;
18647;SDS011;9453;50.294;18.644;2024-01-11T17:55:40;58.00;;;18.67;;
18647;SDS011;9453;50.294;18.644;2024-01-11T17:58:07;54.23;;;18.33;;
18647;SDS011;9453;50.294;18.644;2024-01-11T18:00:34;50.47;;;17.73;;
18647;SDS011;9453;50.294;18.644;2024-01-11T18:03:02;47.80;;;17.40;;
18647;SDS011;9453;50.294;18.644;2024-01-11T18:05:30;46.93;;;16.90;;
18647;SDS011;9453;50.294;18.644;2024-01-11T18:07:56;46.23;;;17.17;;
18647;SDS011;9453;50.294;18.644;2024-01-11T18:10:25;57.77;;;18.33;;
18647;SDS011;9453;50.294;18.644;2024-01-11T18:12:52;53.60;;;18.80;;
18647;SDS011;9453;50.294;18.644;2024-01-11T18:15:19;49.20;;;18.03;;
18647;SDS011;9453;50.294;18.644;2024-01-11T18:17:46;48.20;;;19.10;;
18647;SDS011;9453;50.294;18.644;2024-01-11T18:20:14;48.50;;;17.83;;
18647;SDS011;9453;50.294;18.644;2024-01-11T18:22:41;54.10;;;19.00;;
18647;SDS011;9453;50.294;18.644;2024-01-11T18:25:08;49.47;;;19.70;;
18647;SDS011;9453;50.294;18.644;2024-01-11T18:27:37;57.53;;;19.90;;
18647;SDS011;9453;50.294;18.644;2024-01-11T18:30:05;58.33;;;20.37;;
18647;SDS011;9453;50.294;18.644;2024-01-11T18:32:33;55.53;;;20.30;;
18647;SDS011;9453;50.294;18.644;2024-01-11T18:35:00;57.53;;;19.93;;
18647;SDS011;9453;50.294;18.644;2024-01-11T18:37:27;59.50;;;20.97;;
18647;SDS011;9453;50.294;18.644;2024-01-11T18:39:54;58.73;;;21.03;;
18647;SDS011;9453;50.294;18.644;2024-01-11T18:42:24;62.10;;;20.30;;
18647;SDS011;9453;50.294;18.644;2024-01-11T18:44:52;63.57;;;20.33;;
18647;SDS011;9453;50.294;18.644;2024-01-11T18:47:21;59.50;;;22.37;;
18647;SDS011;9453;50.294;18.644;2024-01-11T18:49:49;57.87;;;20.30;;
18647;SDS011;9453;50.294;18.644;2024-01-11T18:52:15;60.67;;;21.60;;
18647;SDS011;9453;50.294;18.644;2024-01-11T18:54:42;60.97;;;22.83;;
18647;SDS011;9453;50.294;18.644;2024-01-11T18:57:09;61.63;;;21.47;;
18647;SDS011;9453;50.294;18.644;2024-01-11T18:59:39;57.87;;;19.67;;
18647;SDS011;9453;50.294;18.644;2024-01-11T19:02:07;65.87;;;21.40;;
18647;SDS011;9453;50.294;18.644;2024-01-11T19:04:34;68.90;;;23.47;;
18647;SDS011;9453;50.294;18.644;2024-01-11T19:07:02;47.07;;;18.20;;
18647;SDS011;9453;50.294;18.644;2024-01-11T19:09:29;56.50;;;19.80;;
18647;SDS011;9453;50.294;18.644;2024-01-11T19:11:56;58.73;;;19.37;;
18647;SDS011;9453;50.294;18.644;2024-01-11T19:14:25;48.37;;;18.73;;
18647;SDS011;9453;50.294;18.644;2024-01-11T19:16:52;50.13;;;17.70;;
18647;SDS011;9453;50.294;18.644;2024-01-11T19:19:20;48.10;;;17.57;;
18647;SDS011;9453;50.294;18.644;2024-01-11T19:21:47;48.53;;;17.07;;
18647;SDS011;9453;50.294;18.644;2024-01-11T19:24:14;44.63;;;18.00;;
18647;SDS011;9453;50.294;18.644;2024-01-11T19:26:41;43.93;;;17.70;;
18647;SDS011;9453;50.294;18.644;2024-01-11T19:29:12;45.00;;;16.67;;